Time,TemperatureF,DewpointF,PressureIn,WindDirection,WindDirectionDegrees,WindSpeedMPH,WindSpeedGustMPH,Humidity,HourlyPrecipIn,Conditions,Clouds,dailyrainin,SoftwareType,DateUTC
2013-11-04 00:04:00,29.8,27.0,30.43,West,270,0.0,0.0,88,0.00,,,0.00,weatherlink.com 1.10,2013-11-04 05:04:00,
2013-11-04 00:18:00,29.5,27.0,30.42,West,270,0.0,2.0,89,0.00,,,0.00,weatherlink.com 1.10,2013-11-04 05:18:00,
2013-11-04 00:33:00,29.3,27.0,30.43,West,270,0.0,1.0,89,0.00,,,0.00,weatherlink.com 1.10,2013-11-04 05:33:00,
2013-11-04 00:48:00,29.1,26.0,30.42,West,270,0.0,1.0,89,0.00,,,0.00,weatherlink.com 1.10,2013-11-04 05:48:00,
2013-11-04 01:03:00,28.9,26.0,30.43,West,270,0.0,0.0,89,0.00,,,0.00,weatherlink.com 1.10,2013-11-04 06:03:00,
2013-11-04 01:18:00,28.9,26.0,30.45,West,270,0.0,1.0,90,0.00,,,0.00,weatherlink.com 1.10,2013-11-04 06:18:00,
2013-11-04 01:33:00,29.0,27.0,30.46,West,270,0.0,0.0,90,0.00,,,0.00,weatherlink.com 1.10,2013-11-04 06:33:00,
2013-11-04 01:48:00,28.6,26.0,30.46,West,270,0.0,1.0,90,0.00,,,0.00,weatherlink.com 1.10,2013-11-04 06:48:00,
2013-11-04 02:03:00,28.5,26.0,30.46,West,270,0.0,2.0,90,0.00,,,0.00,weatherlink.com 1.10,2013-11-04 07:03:00,
2013-11-04 02:18:00,28.5,26.0,30.46,West,270,0.0,0.0,90,0.00,,,0.00,weatherlink.com 1.10,2013-11-04 07:18:00,
2013-11-04 02:33:00,28.3,26.0,30.46,West,270,1.0,2.0,90,0.00,,,0.00,weatherlink.com 1.10,2013-11-04 07:33:00,
2013-11-04 02:48:00,28.5,26.0,30.45,West,270,0.0,0.0,90,0.00,,,0.00,weatherlink.com 1.10,2013-11-04 07:48:00,
2013-11-04 03:03:00,28.2,26.0,30.46,West,270,0.0,1.0,90,0.00,,,0.00,weatherlink.com 1.10,2013-11-04 08:03:00,
2013-11-04 03:18:00,27.9,25.0,30.46,West,270,2.0,2.0,90,0.00,,,0.00,weatherlink.com 1.10,2013-11-04 08:18:00,
2013-11-04 03:33:00,27.9,26.0,30.45,West,270,0.0,1.0,91,0.00,,,0.00,weatherlink.com 1.10,2013-11-04 08:33:00,
2013-11-04 03:48:00,27.8,26.0,30.46,NW,324,1.0,3.0,91,0.00,,,0.00,weatherlink.com 1.10,2013-11-04 08:48:00,
2013-11-04 04:03:00,27.6,25.0,30.45,NW,324,1.0,2.0,91,0.00,,,0.00,weatherlink.com 1.10,2013-11-04 09:03:00,
2013-11-04 04:18:00,27.5,25.0,30.46,NW,324,0.0,1.0,91,0.00,,,0.00,weatherlink.com 1.10,2013-11-04 09:18:00,
2013-11-04 04:33:00,27.3,25.0,30.47,NW,324,0.0,0.0,91,0.00,,,0.00,weatherlink.com 1.10,2013-11-04 09:33:00,
2013-11-04 04:51:00,27.2,25.0,30.48,NW,324,0.0,0.0,91,0.00,,,0.00,weatherlink.com 1.10,2013-11-04 09:51:00,
2013-11-04 05:03:00,27.2,25.0,30.49,NW,324,0.0,0.0,91,0.00,,,0.00,weatherlink.com 1.10,2013-11-04 10:03:00,
2013-11-04 05:18:00,27.1,25.0,30.49,NW,324,0.0,0.0,91,0.00,,,0.00,weatherlink.com 1.10,2013-11-04 10:18:00,
2013-11-04 05:33:00,27.0,25.0,30.50,NW,324,0.0,1.0,91,0.00,,,0.00,weatherlink.com 1.10,2013-11-04 10:33:00,
2013-11-04 05:48:00,27.0,25.0,30.51,NW,324,0.0,0.0,91,0.00,,,0.00,weatherlink.com 1.10,2013-11-04 10:48:00,
2013-11-04 06:03:00,26.8,25.0,30.51,NW,324,0.0,0.0,91,0.00,,,0.00,weatherlink.com 1.10,2013-11-04 11:03:00,
2013-11-04 06:18:00,26.9,25.0,30.52,NW,324,0.0,1.0,92,0.00,,,0.00,weatherlink.com 1.10,2013-11-04 11:18:00,
2013-11-04 06:33:00,26.7,25.0,30.53,NW,324,0.0,1.0,91,0.00,,,0.00,weatherlink.com 1.10,2013-11-04 11:33:00,
2013-11-04 06:48:00,26.7,25.0,30.53,NW,324,0.0,1.0,92,0.00,,,0.00,weatherlink.com 1.10,2013-11-04 11:48:00,
2013-11-04 07:03:00,26.7,25.0,30.54,NW,325,0.0,1.0,92,0.00,,,0.00,weatherlink.com 1.10,2013-11-04 12:03:00,
2013-11-04 07:18:00,26.7,25.0,30.54,NW,324,0.0,0.0,92,0.00,,,0.00,weatherlink.com 1.10,2013-11-04 12:18:00,
2013-11-04 07:33:00,26.7,25.0,30.55,NW,324,0.0,0.0,92,0.00,,,0.00,weatherlink.com 1.10,2013-11-04 12:33:00,
2013-11-04 07:48:00,28.1,26.0,30.55,NW,324,0.0,1.0,93,0.00,,,0.00,weatherlink.com 1.10,2013-11-04 12:48:00,
2013-11-04 08:03:00,30.1,29.0,30.55,NW,324,1.0,3.0,94,0.00,,,0.00,weatherlink.com 1.10,2013-11-04 13:03:00,
2013-11-04 08:19:00,32.1,30.0,30.55,WSW,237,0.0,4.0,93,0.00,,,0.00,weatherlink.com 1.10,2013-11-04 13:19:00,
2013-11-04 08:34:00,34.1,30.0,30.57,East,96,0.0,2.0,85,0.00,,,0.00,weatherlink.com 1.10,2013-11-04 13:34:00,
2013-11-04 08:49:00,36.5,30.0,30.58,West,278,0.0,2.0,76,0.00,,,0.00,weatherlink.com 1.10,2013-11-04 13:49:00,
2013-11-04 09:04:00,38.5,28.0,30.57,WNW,303,0.0,4.0,67,0.00,,,0.00,weatherlink.com 1.10,2013-11-04 14:04:00,
2013-11-04 09:19:00,39.2,27.0,30.56,SSE,147,0.0,2.0,62,0.00,,,0.00,weatherlink.com 1.10,2013-11-04 14:19:00,
2013-11-04 09:34:00,40.1,27.0,30.56,SSW,196,0.0,4.0,59,0.00,,,0.00,weatherlink.com 1.10,2013-11-04 14:34:00,
2013-11-04 09:49:00,41.9,26.0,30.57,West,259,3.0,6.0,54,0.00,,,0.00,weatherlink.com 1.10,2013-11-04 14:49:00,
2013-11-04 10:04:00,42.7,26.0,30.57,WSW,240,4.0,10.0,52,0.00,,,0.00,weatherlink.com 1.10,2013-11-04 15:04:00,
2013-11-04 10:19:00,43.2,26.0,30.57,South,185,0.0,8.0,51,0.00,,,0.00,weatherlink.com 1.10,2013-11-04 15:19:00,
2013-11-04 10:34:00,43.7,27.0,30.57,ENE,72,0.0,5.0,53,0.00,,,0.00,weatherlink.com 1.10,2013-11-04 15:34:00,
2013-11-04 10:49:00,45.2,27.0,30.55,WNW,284,0.0,4.0,50,0.00,,,0.00,weatherlink.com 1.10,2013-11-04 15:49:00,
2013-11-04 11:04:00,45.5,26.0,30.54,WNW,287,6.0,9.0,47,0.00,,,0.00,weatherlink.com 1.10,2013-11-04 16:04:00,
2013-11-04 11:19:00,45.5,27.0,30.55,ENE,67,2.0,6.0,48,0.00,,,0.00,weatherlink.com 1.10,2013-11-04 16:19:00,
2013-11-04 11:34:00,45.9,27.0,30.56,ENE,63,1.0,6.0,48,0.00,,,0.00,weatherlink.com 1.10,2013-11-04 16:34:00,
2013-11-04 11:49:00,47.0,28.0,30.55,SW,233,0.0,4.0,47,0.00,,,0.00,weatherlink.com 1.10,2013-11-04 16:49:00,
2013-11-04 12:04:00,47.9,28.0,30.54,WSW,245,6.0,8.0,46,0.00,,,0.00,weatherlink.com 1.10,2013-11-04 17:04:00,
2013-11-04 12:19:00,47.0,28.0,30.54,WSW,258,3.0,8.0,48,0.00,,,0.00,weatherlink.com 1.10,2013-11-04 17:19:00,
2013-11-04 12:34:00,47.7,28.0,30.54,SW,228,2.0,5.0,46,0.00,,,0.00,weatherlink.com 1.10,2013-11-04 17:34:00,
2013-11-04 12:49:00,48.5,28.0,30.52,WNW,294,0.0,3.0,46,0.00,,,0.00,weatherlink.com 1.10,2013-11-04 17:49:00,
2013-11-04 13:04:00,48.9,28.0,30.52,SW,219,1.0,3.0,45,0.00,,,0.00,weatherlink.com 1.10,2013-11-04 18:04:00,
2013-11-04 13:19:00,49.2,29.0,30.51,SW,233,5.0,5.0,45,0.00,,,0.00,weatherlink.com 1.10,2013-11-04 18:19:00,
2013-11-04 13:34:00,49.1,28.0,30.51,SW,221,1.0,4.0,44,0.00,,,0.00,weatherlink.com 1.10,2013-11-04 18:34:00,
2013-11-04 13:49:00,49.9,29.0,30.51,NE,55,1.0,4.0,45,0.00,,,0.00,weatherlink.com 1.10,2013-11-04 18:49:00,
2013-11-04 14:04:00,50.0,28.0,30.51,WSW,252,4.0,5.0,43,0.00,,,0.00,weatherlink.com 1.10,2013-11-04 19:04:00,
2013-11-04 14:19:00,50.0,28.0,30.50,SW,225,2.0,6.0,43,0.00,,,0.00,weatherlink.com 1.10,2013-11-04 19:19:00,
2013-11-04 14:34:00,50.4,29.0,30.50,SW,227,3.0,5.0,44,0.00,,,0.00,weatherlink.com 1.10,2013-11-04 19:34:00,
2013-11-04 14:50:00,51.1,28.0,30.49,WSW,249,5.0,5.0,41,0.00,,,0.00,weatherlink.com 1.10,2013-11-04 19:50:00,
2013-11-04 15:05:00,51.8,30.0,30.49,East,83,1.0,4.0,43,0.00,,,0.00,weatherlink.com 1.10,2013-11-04 20:05:00,
2013-11-04 15:20:00,52.0,29.0,30.50,SW,226,0.0,3.0,41,0.00,,,0.00,weatherlink.com 1.10,2013-11-04 20:20:00,
2013-11-04 15:35:00,51.8,29.0,30.50,SW,217,0.0,4.0,41,0.00,,,0.00,weatherlink.com 1.10,2013-11-04 20:35:00,
2013-11-04 15:50:00,50.8,28.0,30.49,SW,229,2.0,9.0,42,0.00,,,0.00,weatherlink.com 1.10,2013-11-04 20:50:00,
2013-11-04 16:05:00,49.9,29.0,30.49,SSW,210,1.0,3.0,44,0.00,,,0.00,weatherlink.com 1.10,2013-11-04 21:05:00,
2013-11-04 16:20:00,49.3,29.0,30.49,WSW,258,1.0,7.0,46,0.00,,,0.00,weatherlink.com 1.10,2013-11-04 21:20:00,
2013-11-04 16:35:00,48.6,29.0,30.50,NW,306,1.0,2.0,47,0.00,,,0.00,weatherlink.com 1.10,2013-11-04 21:35:00,
2013-11-04 16:50:00,48.3,30.0,30.50,SSW,213,2.0,6.0,49,0.00,,,0.00,weatherlink.com 1.10,2013-11-04 21:50:00,
2013-11-04 17:05:00,47.5,28.0,30.50,WSW,244,0.0,6.0,48,0.00,,,0.00,weatherlink.com 1.10,2013-11-04 22:05:00,
2013-11-04 17:20:00,46.7,29.0,30.50,SW,221,2.0,5.0,50,0.00,,,0.00,weatherlink.com 1.10,2013-11-04 22:20:00,
2013-11-04 17:35:00,45.6,29.0,30.50,SW,229,0.0,2.0,53,0.00,,,0.00,weatherlink.com 1.10,2013-11-04 22:35:00,
2013-11-04 17:50:00,44.8,29.0,30.50,WSW,248,0.0,3.0,54,0.00,,,0.00,weatherlink.com 1.10,2013-11-04 22:50:00,
2013-11-04 18:05:00,44.2,28.0,30.51,NW,313,0.0,3.0,54,0.00,,,0.00,weatherlink.com 1.10,2013-11-04 23:05:00,
2013-11-04 18:20:00,43.4,28.0,30.51,WNW,294,0.0,2.0,55,0.00,,,0.00,weatherlink.com 1.10,2013-11-04 23:20:00,
2013-11-04 18:35:00,42.2,28.0,30.52,WNW,294,0.0,1.0,57,0.00,,,0.00,weatherlink.com 1.10,2013-11-04 23:35:00,
2013-11-04 18:50:00,41.3,28.0,30.52,WNW,294,0.0,2.0,59,0.00,,,0.00,weatherlink.com 1.10,2013-11-04 23:50:00,
2013-11-04 19:05:00,40.9,28.0,30.53,WNW,294,0.0,1.0,60,0.00,,,0.00,weatherlink.com 1.10,2013-11-05 00:05:00,
2013-11-04 19:20:00,40.8,28.0,30.53,WNW,294,0.0,1.0,61,0.00,,,0.00,weatherlink.com 1.10,2013-11-05 00:20:00,
2013-11-04 19:37:00,40.5,28.0,30.54,WNW,294,0.0,1.0,62,0.00,,,0.00,weatherlink.com 1.10,2013-11-05 00:37:00,
2013-11-04 19:50:00,40.2,29.0,30.55,WNW,294,0.0,1.0,64,0.00,,,0.00,weatherlink.com 1.10,2013-11-05 00:50:00,
2013-11-04 20:05:00,39.6,29.0,30.53,WNW,294,0.0,0.0,66,0.00,,,0.00,weatherlink.com 1.10,2013-11-05 01:05:00,
2013-11-04 20:20:00,39.2,29.0,30.53,WNW,294,0.0,0.0,66,0.00,,,0.00,weatherlink.com 1.10,2013-11-05 01:20:00,
2013-11-04 20:35:00,38.9,29.0,30.53,WNW,294,0.0,0.0,67,0.00,,,0.00,weatherlink.com 1.10,2013-11-05 01:35:00,
2013-11-04 20:50:00,39.2,29.0,30.53,WNW,286,0.0,3.0,67,0.00,,,0.00,weatherlink.com 1.10,2013-11-05 01:50:00,
2013-11-04 21:05:00,39.5,29.0,30.54,WNW,286,0.0,1.0,66,0.00,,,0.00,weatherlink.com 1.10,2013-11-05 02:05:00,
2013-11-04 21:20:00,39.7,29.0,30.54,WNW,286,0.0,1.0,66,0.00,,,0.00,weatherlink.com 1.10,2013-11-05 02:20:00,
2013-11-04 21:35:00,40.1,29.0,30.54,WNW,286,0.0,2.0,66,0.00,,,0.00,weatherlink.com 1.10,2013-11-05 02:35:00,
2013-11-04 21:50:00,40.2,30.0,30.55,WNW,286,0.0,1.0,66,0.00,,,0.00,weatherlink.com 1.10,2013-11-05 02:50:00,
2013-11-04 22:05:00,40.1,29.0,30.54,WNW,286,0.0,1.0,66,0.00,,,0.00,weatherlink.com 1.10,2013-11-05 03:05:00,
2013-11-04 22:20:00,39.9,29.0,30.55,WNW,286,0.0,2.0,66,0.00,,,0.00,weatherlink.com 1.10,2013-11-05 03:20:00,
2013-11-04 22:35:00,40.0,29.0,30.54,WNW,283,0.0,1.0,66,0.00,,,0.00,weatherlink.com 1.10,2013-11-05 03:35:00,
2013-11-04 22:50:00,39.8,30.0,30.54,WNW,283,0.0,1.0,67,0.00,,,0.00,weatherlink.com 1.10,2013-11-05 03:50:00,
2013-11-04 23:05:00,40.1,30.0,30.54,WSW,237,0.0,3.0,67,0.00,,,0.00,weatherlink.com 1.10,2013-11-05 04:05:00,
2013-11-04 23:22:00,40.3,30.0,30.54,WSW,255,0.0,3.0,66,0.00,,,0.00,weatherlink.com 1.10,2013-11-05 04:22:00,
2013-11-04 23:35:00,40.2,30.0,30.55,WSW,256,1.0,3.0,66,0.00,,,0.00,weatherlink.com 1.10,2013-11-05 04:35:00,
2013-11-04 23:50:00,39.7,29.0,30.55,West,275,1.0,2.0,67,0.00,,,0.00,weatherlink.com 1.10,2013-11-05 04:50:00,